Archival Weather

Biggin Hill

Biggin Hill, United Kingdom (EGKB)

Report from: Sunday, September 25, 2022 7:50 PM BST
Current time: Saturday, March 2, 2024 10:09 AM GMT

Current weather – Weather history – Daily summaries
Weather forecast

Temperature10.0°C (50.0°F)
Wind chill8.2°C (46.7°F)
Dew point4.0°C (39.2°F)
Winds 7 kts (3.6 m/s, 8.1 mph) Southwest (220°)
Clouds Sky clear
Altimeter29.97 in.Hg (1015 mB)
Relative humidity66 %
Density altitude-537 ft. (-164 m)
Remarks Ceiling and visibility OK
Flight conditions Visual Meteorological Conditions
Raw dataEGKB 251850Z 22007KT CAVOK 10/04 Q1015
An error has occurred. This application may no longer respond until reloaded. Reload 🗙